Time;durP1;ratioP1;P1;durP2;ratioP2;P2;SDS_P1;SDS_P2;PMS_P1;PMS_P2;Temp;Humidity;BMP_temperature;BMP_pressure;BME280_temperature;BME280_humidity;BME280_pressure;Samples;Min_cycle;Max_cycle;Signal;HPM_P1;HPM_P2
2023/08/12 00:01:57;;;;;;;36.83;33.30;;;20.50;99.90;;;;;;4958698;29;20884;-58
2023/08/12 00:04:24;;;;;;;37.07;33.70;;;20.50;99.90;;;;;;4958766;28;20569;-58
2023/08/12 00:06:52;;;;;;;35.83;32.00;;;20.70;99.90;;;;;;4977543;28;20845;-57
2023/08/12 00:09:19;;;;;;;39.50;35.60;;;20.70;99.90;;;;;;4977425;28;20548;-58
2023/08/12 00:11:46;;;;;;;36.63;33.13;;;20.80;99.90;;;;;;4977558;28;20466;-58
2023/08/12 00:14:13;;;;;;;38.30;34.50;;;20.90;99.90;;;;;;4977602;28;20500;-57
2023/08/12 00:16:42;;;;;;;37.27;33.57;;;20.90;99.90;;;;;;4962501;28;20786;-58
2023/08/12 00:19:09;;;;;;;38.17;34.43;;;20.80;99.90;;;;;;4958493;28;20511;-58
2023/08/12 00:21:37;;;;;;;38.27;34.43;;;20.80;99.90;;;;;;4957939;29;20502;-59
2023/08/12 00:24:04;;;;;;;38.73;34.70;;;20.90;99.90;;;;;;4965472;28;20512;-58
2023/08/12 00:26:32;;;;;;;37.03;33.50;;;20.90;99.90;;;;;;4966981;28;20466;-59
2023/08/12 00:28:59;;;;;;;40.27;36.43;;;21.00;99.90;;;;;;4958246;28;20485;-59
2023/08/12 00:31:26;;;;;;;38.30;34.40;;;20.90;99.90;;;;;;4957877;29;20505;-60
2023/08/12 00:33:55;;;;;;;38.50;34.67;;;20.90;99.90;;;;;;4958180;29;20437;-59
2023/08/12 00:36:22;;;;;;;37.80;34.30;;;20.80;99.90;;;;;;4961924;28;20468;-60
2023/08/12 00:38:49;;;;;;;37.30;33.80;;;20.90;99.90;;;;;;4977240;28;20495;-61
2023/08/12 00:41:16;;;;;;;37.47;33.97;;;20.90;99.90;;;;;;4977529;28;20489;-61
2023/08/12 00:43:43;;;;;;;34.90;31.60;;;20.80;99.90;;;;;;4959621;28;20549;-61
2023/08/12 00:46:11;;;;;;;37.43;33.73;;;20.80;99.90;;;;;;4957622;29;20463;-63
2023/08/12 00:48:38;;;;;;;40.70;36.67;;;20.90;99.90;;;;;;4975619;28;20550;-61
2023/08/12 00:51:07;;;;;;;37.03;33.30;;;20.90;99.90;;;;;;4977672;28;20556;-61
2023/08/12 00:53:34;;;;;;;36.70;33.13;;;20.90;99.90;;;;;;4935382;28;1267203;-59
2023/08/12 00:56:01;;;;;;;37.10;33.30;;;20.90;99.90;;;;;;4982507;28;20226;-59
2023/08/12 00:58:29;;;;;;;40.03;36.10;;;20.90;99.90;;;;;;4968631;28;20500;-57
2023/08/12 01:00:56;;;;;;;39.70;35.80;;;20.90;99.90;;;;;;4962690;28;20471;-57
2023/08/12 01:03:24;;;;;;;37.90;34.20;;;20.90;99.90;;;;;;4965449;28;20477;-58
2023/08/12 01:05:52;;;;;;;39.00;35.20;;;20.80;99.90;;;;;;4962670;28;20896;-59
2023/08/12 01:08:20;;;;;;;37.80;33.70;;;20.80;99.90;;;;;;4962778;28;20467;-58
2023/08/12 01:10:57;;;;;;;39.33;35.53;;;20.80;99.90;;;;;;4962325;29;20758;-58
2023/08/12 01:13:37;;;;;;;38.70;34.57;;;20.80;99.90;;;;;;4968300;28;20547;-61
2023/08/12 01:16:09;;;;;;;28.50;26.00;;;20.80;99.90;;;;;;4981870;28;20472;-60
2023/08/12 01:18:38;;;;;;;26.30;23.70;;;20.80;99.90;;;;;;4980775;28;20485;-58
2023/08/12 01:21:08;;;;;;;27.63;24.90;;;20.60;99.90;;;;;;4982139;28;20900;-58
2023/08/12 01:23:38;;;;;;;23.00;20.80;;;20.70;99.90;;;;;;4980900;28;20561;-58
2023/08/12 01:26:05;;;;;;;20.47;18.40;;;20.60;99.90;;;;;;4971485;28;20529;-58
2023/08/12 01:28:32;;;;;;;19.90;18.00;;;20.40;99.90;;;;;;4963234;28;20463;-57
2023/08/12 01:31:07;;;;;;;21.10;18.90;;;20.40;99.90;;;;;;4981360;28;20560;-57
2023/08/12 01:33:40;;;;;;;22.23;17.60;;;20.50;99.90;;;;;;4981323;28;20461;-57
2023/08/12 01:36:12;;;;;;;17.53;15.70;;;20.40;99.90;;;;;;4981485;28;20500;-57
2023/08/12 01:38:41;;;;;;;16.20;14.50;;;20.40;99.90;;;;;;4981236;28;20485;-57
2023/08/12 01:41:11;;;;;;;16.47;14.97;;;20.40;99.90;;;;;;4961917;28;20473;-58
2023/08/12 01:43:39;;;;;;;16.40;14.70;;;20.40;99.90;;;;;;4962203;28;20501;-57
2023/08/12 01:46:06;;;;;;;15.70;13.60;;;20.40;99.90;;;;;;4962279;29;20841;-59
2023/08/12 01:48:33;;;;;;;17.20;14.83;;;20.40;99.90;;;;;;4961855;28;20810;-59
2023/08/12 01:51:01;;;;;;;13.63;12.33;;;20.30;99.90;;;;;;4961980;28;20463;-59
2023/08/12 01:53:28;;;;;;;13.33;12.13;;;20.30;99.90;;;;;;4961408;29;20581;-59
2023/08/12 01:55:57;;;;;;;14.87;13.47;;;20.30;99.90;;;;;;4961560;29;20981;-60
2023/08/12 01:58:26;;;;;;;15.57;13.77;;;20.30;99.90;;;;;;4961817;29;20501;-59
2023/08/12 02:00:53;;;;;;;14.93;13.30;;;20.30;99.90;;;;;;4975458;28;20524;-59
2023/08/12 02:03:20;;;;;;;15.80;14.27;;;20.30;99.90;;;;;;4964280;28;20490;-58
2023/08/12 02:05:47;;;;;;;15.37;13.87;;;20.30;99.90;;;;;;4961270;28;20505;-58
2023/08/12 02:08:14;;;;;;;16.43;14.50;;;20.30;99.90;;;;;;4961707;29;20485;-58
2023/08/12 02:10:42;;;;;;;15.70;14.20;;;20.30;99.90;;;;;;4970276;28;20466;-59
2023/08/12 02:13:10;;;;;;;16.70;15.10;;;20.30;99.90;;;;;;4981151;28;20528;-59
2023/08/12 02:15:38;;;;;;;15.63;14.13;;;20.30;99.90;;;;;;4978429;28;20466;-63
2023/08/12 02:18:05;;;;;;;15.83;14.20;;;20.20;99.90;;;;;;4980389;28;20813;-63
2023/08/12 02:20:33;;;;;;;14.77;13.37;;;20.20;99.90;;;;;;4975211;28;20487;-62
2023/08/12 02:23:00;;;;;;;15.83;14.40;;;20.20;99.90;;;;;;4961414;28;20467;-63
2023/08/12 02:25:27;;;;;;;14.80;13.30;;;20.20;99.90;;;;;;4961207;29;20549;-63
2023/08/12 02:27:54;;;;;;;14.40;13.13;;;20.20;99.90;;;;;;4961356;29;20561;-63
2023/08/12 02:30:23;;;;;;;15.43;13.70;;;20.30;99.90;;;;;;4960965;29;20467;-62
2023/08/12 02:32:50;;;;;;;16.27;14.40;;;20.30;99.90;;;;;;4979299;28;20560;-62
2023/08/12 02:35:19;;;;;;;15.70;14.13;;;20.30;99.90;;;;;;4979629;28;20469;-62
2023/08/12 02:37:46;;;;;;;15.50;14.07;;;20.30;99.90;;;;;;4980092;28;20548;-62
2023/08/12 02:40:14;;;;;;;16.07;14.63;;;20.20;99.90;;;;;;4979364;28;20496;-62
2023/08/12 02:42:41;;;;;;;15.93;14.50;;;20.20;99.90;;;;;;4966371;28;20605;-62
2023/08/12 02:45:08;;;;;;;15.53;14.13;;;20.20;99.90;;;;;;4961294;29;20524;-62
2023/08/12 02:47:37;;;;;;;17.90;16.00;;;20.20;99.90;;;;;;4978184;28;20469;-62
2023/08/12 02:50:05;;;;;;;18.10;15.30;;;20.20;99.90;;;;;;4980058;28;20462;-62
2023/08/12 02:52:32;;;;;;;17.40;15.70;;;20.10;99.90;;;;;;4971001;28;20955;-62
2023/08/12 02:54:59;;;;;;;19.13;17.30;;;20.10;99.90;;;;;;4960775;28;20467;-62
2023/08/12 02:57:27;;;;;;;17.90;16.13;;;20.10;99.90;;;;;;4960272;29;20891;-62
2023/08/12 02:59:54;;;;;;;18.27;16.37;;;20.20;99.90;;;;;;4959709;29;20501;-62
2023/08/12 03:02:21;;;;;;;18.03;15.10;;;20.10;99.90;;;;;;4961435;28;20473;-62
2023/08/12 03:04:50;;;;;;;17.73;15.93;;;20.10;99.90;;;;;;4960786;28;20904;-62
2023/08/12 03:07:17;;;;;;;19.83;17.80;;;20.10;99.90;;;;;;4968216;28;20549;-62
2023/08/12 03:09:44;;;;;;;18.90;17.10;;;20.20;99.90;;;;;;4968300;28;20839;-62
2023/08/12 03:12:11;;;;;;;18.47;16.70;;;20.10;99.90;;;;;;4979719;28;20907;-62
2023/08/12 03:14:39;;;;;;;19.03;17.13;;;20.10;99.90;;;;;;4964277;28;20553;-62
2023/08/12 03:17:06;;;;;;;17.10;15.47;;;20.10;99.90;;;;;;4959542;28;20467;-62
2023/08/12 03:19:33;;;;;;;18.10;16.30;;;20.10;99.90;;;;;;4979638;28;20529;-62
2023/08/12 03:22:02;;;;;;;17.27;14.40;;;20.10;99.90;;;;;;4979691;28;20538;-62
2023/08/12 03:24:29;;;;;;;18.27;16.57;;;20.00;99.90;;;;;;4969607;28;20777;-63
2023/08/12 03:26:57;;;;;;;18.63;16.73;;;19.90;99.90;;;;;;4971118;28;20501;-63
2023/08/12 03:29:24;;;;;;;18.40;16.70;;;20.00;99.90;;;;;;4973416;28;20467;-63
2023/08/12 03:31:51;;;;;;;20.10;18.00;;;19.90;99.90;;;;;;4960032;29;20853;-63
2023/08/12 03:34:18;;;;;;;19.00;17.20;;;19.90;99.90;;;;;;4962703;28;20476;-63
2023/08/12 03:36:48;;;;;;;19.63;17.73;;;20.00;99.90;;;;;;4960168;29;20463;-63
2023/08/12 03:39:16;;;;;;;18.53;16.93;;;19.90;99.90;;;;;;4959429;28;20494;-62
2023/08/12 03:41:44;;;;;;;19.17;16.70;;;19.90;99.90;;;;;;4959458;29;20565;-63
2023/08/12 03:44:11;;;;;;;20.37;18.37;;;19.90;99.90;;;;;;4959461;28;20553;-62
2023/08/12 03:46:38;;;;;;;21.07;18.07;;;19.90;99.90;;;;;;4975655;28;21011;-62
2023/08/12 03:49:05;;;;;;;18.03;16.33;;;19.90;99.90;;;;;;4962773;28;20468;-63
2023/08/12 03:51:33;;;;;;;18.43;16.63;;;19.90;99.90;;;;;;4978627;28;20494;-63
2023/08/12 03:54:00;;;;;;;16.83;15.10;;;19.90;99.90;;;;;;4978807;28;20461;-63
2023/08/12 03:56:29;;;;;;;18.77;17.07;;;19.90;99.90;;;;;;4965178;28;20482;-63
2023/08/12 03:58:56;;;;;;;17.37;15.77;;;19.90;99.90;;;;;;4959543;28;20589;-62
2023/08/12 04:01:23;;;;;;;18.43;16.53;;;20.00;99.90;;;;;;4959734;29;20939;-63
2023/08/12 04:03:51;;;;;;;17.67;15.90;;;19.90;99.90;;;;;;4959236;29;20469;-63
2023/08/12 04:06:18;;;;;;;15.63;14.23;;;19.90;99.90;;;;;;4966748;28;20466;-63
2023/08/12 04:08:45;;;;;;;16.33;14.63;;;19.90;99.90;;;;;;4978159;28;20497;-63
2023/08/12 04:11:12;;;;;;;15.50;14.07;;;19.90;99.90;;;;;;4979168;28;20896;-62
2023/08/12 04:13:41;;;;;;;15.57;13.97;;;19.90;99.90;;;;;;4966436;28;20490;-63
2023/08/12 04:16:08;;;;;;;16.60;14.90;;;19.90;99.90;;;;;;4961239;28;20924;-62
2023/08/12 04:18:35;;;;;;;15.97;14.37;;;20.00;99.90;;;;;;4978753;28;20437;-63
2023/08/12 04:21:02;;;;;;;15.13;13.77;;;20.00;99.90;;;;;;4978187;28;20771;-62
2023/08/12 04:23:29;;;;;;;16.23;14.87;;;19.90;99.90;;;;;;4973002;28;20538;-62
2023/08/12 04:25:57;;;;;;;13.60;12.17;;;19.90;99.90;;;;;;4958726;29;20549;-62
2023/08/12 04:28:24;;;;;;;14.77;12.33;;;19.90;99.90;;;;;;4974884;28;20493;-62
2023/08/12 04:30:52;;;;;;;12.20;11.10;;;20.00;99.90;;;;;;4978357;28;20474;-62
2023/08/12 04:33:20;;;;;;;13.20;12.00;;;20.00;99.90;;;;;;4978088;28;20942;-62
2023/08/12 04:35:48;;;;;;;11.87;10.87;;;20.00;99.90;;;;;;4978443;28;20469;-62
2023/08/12 04:38:15;;;;;;;12.67;11.27;;;20.00;99.90;;;;;;4965579;28;20557;-63
2023/08/12 04:40:43;;;;;;;12.33;11.03;;;20.00;99.90;;;;;;4958326;29;20494;-62
2023/08/12 04:43:11;;;;;;;12.40;11.17;;;19.90;99.90;;;;;;4959097;28;20463;-62
2023/08/12 04:45:38;;;;;;;13.00;11.80;;;20.00;99.90;;;;;;4958783;28;20912;-62
2023/08/12 04:48:08;;;;;;;12.13;10.87;;;20.00;99.90;;;;;;4958455;28;20463;-63
2023/08/12 04:50:35;;;;;;;11.23;10.13;;;20.00;99.90;;;;;;4959129;29;20873;-62
2023/08/12 04:53:02;;;;;;;11.70;10.63;;;20.00;99.90;;;;;;4958142;28;20494;-63
2023/08/12 04:55:30;;;;;;;11.40;10.30;;;20.00;99.90;;;;;;4961841;28;20549;-63
2023/08/12 04:57:57;;;;;;;10.37;9.27;;;20.00;99.90;;;;;;4975128;28;20466;-62
2023/08/12 05:00:24;;;;;;;9.90;8.90;;;20.00;99.90;;;;;;4959638;28;20807;-62
2023/08/12 05:02:51;;;;;;;10.70;9.70;;;20.00;99.90;;;;;;4958848;29;20501;-63
2023/08/12 05:05:20;;;;;;;10.00;9.03;;;19.90;99.90;;;;;;4958635;29;20545;-62
2023/08/12 05:07:48;;;;;;;9.87;8.87;;;19.90;99.90;;;;;;4958572;29;20562;-62
2023/08/12 05:10:17;;;;;;;9.43;8.63;;;19.90;99.90;;;;;;4972577;28;20946;-62
2023/08/12 05:12:44;;;;;;;9.27;8.27;;;20.00;99.90;;;;;;4970975;28;20483;-62
2023/08/12 05:15:11;;;;;;;10.37;9.43;;;20.10;99.90;;;;;;4958814;29;20437;-62
2023/08/12 05:17:39;;;;;;;8.10;7.30;;;20.20;99.90;;;;;;4965968;28;20559;-62
2023/08/12 05:20:07;;;;;;;7.80;7.00;;;20.20;99.90;;;;;;4968066;28;20491;-62
2023/08/12 05:22:36;;;;;;;7.50;6.80;;;20.20;99.90;;;;;;4963036;28;20466;-63
2023/08/12 05:25:03;;;;;;;10.00;9.00;;;20.30;99.90;;;;;;4969403;28;20470;-63
2023/08/12 05:27:30;;;;;;;8.00;7.20;;;20.30;99.90;;;;;;4958725;29;20437;-63
2023/08/12 05:29:58;;;;;;;8.07;7.33;;;20.40;99.90;;;;;;4967836;28;20823;-62
2023/08/12 05:32:25;;;;;;;8.50;7.70;;;20.50;99.90;;;;;;4958688;28;20598;-62
2023/08/12 05:34:53;;;;;;;8.73;7.80;;;20.50;99.90;;;;;;4958447;28;20550;-63
2023/08/12 05:37:21;;;;;;;8.07;7.27;;;20.60;99.90;;;;;;4958208;29;20473;-62
2023/08/12 05:39:49;;;;;;;7.90;7.10;;;20.60;99.90;;;;;;4958354;28;20592;-63
2023/08/12 05:42:16;;;;;;;8.07;7.27;;;20.70;99.90;;;;;;4960755;28;20471;-62
2023/08/12 05:44:44;;;;;;;8.57;7.80;;;20.70;99.90;;;;;;4961687;28;20566;-62
2023/08/12 05:47:11;;;;;;;9.27;7.63;;;20.80;99.90;;;;;;4960316;29;20469;-63
2023/08/12 05:49:38;;;;;;;7.23;6.63;;;21.00;99.90;;;;;;4960514;29;20450;-63
2023/08/12 05:52:05;;;;;;;9.27;8.30;;;21.00;99.90;;;;;;4974842;28;20495;-63
2023/08/12 05:54:33;;;;;;;8.20;7.00;;;21.00;99.90;;;;;;4981060;28;20466;-63
2023/08/12 05:57:02;;;;;;;9.83;7.70;;;21.20;99.90;;;;;;4977741;28;20458;-64
2023/08/12 05:59:29;;;;;;;8.60;7.33;;;21.10;20.80;;;;;;4972185;28;20494;-63
2023/08/12 06:01:56;;;;;;;7.40;6.20;;;21.20;1.00;;;;;;4969764;28;20465;-64
2023/08/12 06:04:24;;;;;;;7.43;6.60;;;21.00;99.90;;;;;;4972517;28;20470;-64
2023/08/12 06:06:51;;;;;;;9.33;6.87;;;21.00;99.90;;;;;;4961976;29;20513;-64
2023/08/12 06:09:19;;;;;;;7.43;6.67;;;21.00;99.90;;;;;;4962318;28;20558;-63
2023/08/12 06:11:46;;;;;;;8.47;7.60;;;21.00;99.90;;;;;;4965606;28;20461;-64
2023/08/12 06:14:15;;;;;;;7.00;6.30;;;20.90;24.70;;;;;;4981143;28;20466;-65
2023/08/12 06:16:42;;;;;;;7.60;6.70;;;20.80;1.00;;;;;;4968648;28;20554;-64
2023/08/12 06:19:09;;;;;;;7.50;6.70;;;20.70;1.00;;;;;;4961457;29;20467;-63
2023/08/12 06:21:36;;;;;;;10.63;6.53;;;20.60;1.00;;;;;;4961320;29;20553;-61
2023/08/12 06:24:04;;;;;;;7.67;6.90;;;20.60;12.70;;;;;;4968149;28;20468;-62
2023/08/12 06:26:31;;;;;;;7.07;6.30;;;20.60;91.30;;;;;;4974807;28;20462;-64
2023/08/12 06:28:59;;;;;;;7.13;6.47;;;20.60;99.90;;;;;;4967641;28;20458;-63
2023/08/12 06:31:27;;;;;;;7.10;6.30;;;20.40;99.90;;;;;;4960614;29;20919;-64
2023/08/12 06:33:54;;;;;;;9.10;6.50;;;20.40;1.00;;;;;;4965997;28;20465;-64
2023/08/12 06:36:21;;;;;;;8.43;7.20;;;20.30;1.00;;;;;;4969150;28;20466;-63
2023/08/12 06:38:49;;;;;;;8.40;7.60;;;20.30;3.70;;;;;;4977872;28;20516;-64
2023/08/12 06:41:16;;;;;;;7.97;7.17;;;20.20;99.90;;;;;;4960268;29;20585;-64
2023/08/12 06:43:43;;;;;;;7.07;6.47;;;20.20;99.90;;;;;;4964692;28;20497;-64
2023/08/12 06:46:10;;;;;;;7.10;6.30;;;20.20;99.90;;;;;;4971558;28;20564;-62
2023/08/12 06:48:39;;;;;;;7.70;6.90;;;20.10;99.90;;;;;;4979573;28;20466;-63
2023/08/12 06:51:10;;;;;;;8.00;7.30;;;20.00;99.90;;;;;;4979091;28;20458;-63
2023/08/12 06:53:37;;;;;;;7.97;7.17;;;20.00;99.90;;;;;;4977322;28;20458;-64
2023/08/12 06:56:04;;;;;;;7.30;6.60;;;20.00;99.90;;;;;;4964827;28;20537;-63
2023/08/12 06:58:32;;;;;;;9.00;6.63;;;19.90;99.90;;;;;;4959986;28;20544;-62
2023/08/12 07:01:00;;;;;;;7.30;6.60;;;19.90;99.90;;;;;;4960526;29;20581;-62
2023/08/12 07:03:27;;;;;;;8.07;6.70;;;19.90;99.90;;;;;;4959543;29;20891;-61
2023/08/12 07:05:56;;;;;;;6.90;6.30;;;19.80;99.90;;;;;;4975164;28;20933;-62
2023/08/12 07:08:23;;;;;;;8.23;7.43;;;19.80;99.90;;;;;;4978326;28;20799;-63
2023/08/12 07:10:50;;;;;;;12.43;6.30;;;19.70;99.90;;;;;;4978609;28;20562;-61
2023/08/12 07:13:18;;;;;;;6.90;6.27;;;19.80;99.90;;;;;;4977969;28;20556;-60
2023/08/12 07:15:45;;;;;;;8.57;6.10;;;19.80;99.90;;;;;;4967360;28;20833;-63
2023/08/12 07:18:12;;;;;;;8.80;5.97;;;19.80;99.90;;;;;;4960238;28;20769;-63
2023/08/12 07:20:39;;;;;;;6.80;6.10;;;19.90;99.90;;;;;;4960366;29;20593;-62
2023/08/12 07:23:08;;;;;;;6.70;6.10;;;19.90;99.90;;;;;;4960444;29;20807;-62
2023/08/12 07:25:35;;;;;;;6.80;6.20;;;20.00;99.90;;;;;;4964484;28;20462;-62
2023/08/12 07:28:02;;;;;;;5.63;5.13;;;20.20;99.90;;;;;;4979545;28;20466;-62
2023/08/12 07:30:30;;;;;;;6.43;5.80;;;20.30;99.90;;;;;;4961831;28;20495;-62
2023/08/12 07:32:57;;;;;;;6.37;5.77;;;20.40;99.90;;;;;;4963705;28;20466;-61
2023/08/12 07:35:24;;;;;;;6.03;4.90;;;20.60;99.90;;;;;;4968705;28;20517;-62
2023/08/12 07:37:51;;;;;;;4.53;4.13;;;20.70;99.90;;;;;;4959470;29;20481;-62
2023/08/12 07:40:20;;;;;;;5.90;4.50;;;20.90;99.90;;;;;;4969980;28;20970;-62
2023/08/12 07:42:47;;;;;;;5.40;4.40;;;21.00;99.90;;;;;;4957476;28;20463;-62
2023/08/12 07:45:15;;;;;;;6.73;3.97;;;21.00;99.90;;;;;;4975503;28;20469;-63
2023/08/12 07:47:42;;;;;;;5.97;4.90;;;21.20;99.90;;;;;;4975378;28;20517;-62
2023/08/12 07:50:10;;;;;;;5.27;4.30;;;21.10;99.90;;;;;;4978178;28;20502;-62
2023/08/12 07:52:38;;;;;;;4.80;4.30;;;21.00;94.30;;;;;;4961190;28;20587;-62
2023/08/12 07:55:06;;;;;;;4.77;4.27;;;21.00;1.00;;;;;;4959119;29;20486;-60
2023/08/12 07:57:34;;;;;;;4.97;4.50;;;21.00;1.00;;;;;;4957309;28;20471;-61
2023/08/12 08:00:02;;;;;;;5.93;4.30;;;21.00;14.30;;;;;;4966242;28;20895;-61
2023/08/12 08:02:29;;;;;;;5.53;4.50;;;21.00;1.00;;;;;;4959498;28;20471;-59
2023/08/12 08:04:56;;;;;;;7.63;5.10;;;21.10;1.00;;;;;;4963401;28;20465;-61
2023/08/12 08:07:24;;;;;;;6.23;4.10;;;21.20;1.00;;;;;;4963318;28;20827;-61
2023/08/12 08:09:52;;;;;;;5.77;4.83;;;21.10;1.00;;;;;;4964284;28;20482;-62
2023/08/12 08:12:20;;;;;;;6.27;5.33;;;21.10;1.00;;;;;;4966330;28;20527;-62
2023/08/12 08:14:48;;;;;;;5.30;4.80;;;21.20;1.00;;;;;;4966338;28;20467;-62
2023/08/12 08:17:15;;;;;;;5.53;5.00;;;21.20;1.00;;;;;;4967057;28;20470;-62
2023/08/12 08:19:43;;;;;;;6.20;5.60;;;21.20;1.00;;;;;;4962494;28;20561;-62
2023/08/12 08:22:10;;;;;;;4.90;4.50;;;21.30;1.00;;;;;;4964450;28;20518;-62
2023/08/12 08:24:38;;;;;;;5.80;5.30;;;21.30;1.00;;;;;;4968870;28;20459;-62
2023/08/12 08:27:07;;;;;;;5.93;4.60;;;21.20;1.00;;;;;;4959431;28;20463;-65
2023/08/12 08:29:34;;;;;;;5.50;5.00;;;21.20;1.00;;;;;;4974330;28;20714;-64
2023/08/12 08:32:03;;;;;;;5.90;5.30;;;21.20;1.00;;;;;;4972270;28;20942;-66
2023/08/12 08:34:31;;;;;;;6.27;5.67;;;21.00;1.00;;;;;;4970563;28;20966;-63
2023/08/12 08:36:58;;;;;;;6.60;5.70;;;21.00;1.00;;;;;;4965275;28;20489;-63
2023/08/12 08:39:26;;;;;;;6.33;5.73;;;21.00;1.00;;;;;;4977402;28;20497;-65
2023/08/12 08:41:55;;;;;;;5.50;5.00;;;21.00;99.90;;;;;;4972309;28;20491;-65
2023/08/12 08:44:24;;;;;;;6.60;5.80;;;21.10;99.90;;;;;;4958412;28;20893;-64
2023/08/12 08:46:54;;;;;;;5.80;5.30;;;21.20;1.00;;;;;;4971285;28;20517;-66
2023/08/12 08:49:23;;;;;;;6.20;4.83;;;21.30;1.00;;;;;;4971706;28;20463;-66
2023/08/12 08:51:52;;;;;;;5.10;4.60;;;21.40;99.90;;;;;;4956636;28;20569;-66
2023/08/12 08:54:20;;;;;;;4.90;3.60;;;21.60;1.00;;;;;;4965913;28;20470;-65
2023/08/12 08:56:50;;;;;;;4.83;3.80;;;21.70;99.90;;;;;;4976294;28;20472;-66
2023/08/12 08:59:17;;;;;;;5.33;4.10;;;21.60;99.90;;;;;;4976663;28;20814;-66
2023/08/12 09:01:47;;;;;;;4.20;3.80;;;21.50;99.90;;;;;;4974639;28;20588;-68
2023/08/12 09:04:16;;;;;;;4.37;3.97;;;21.50;99.90;;;;;;4975357;28;20466;-67
2023/08/12 09:06:46;;;;;;;6.10;3.93;;;21.40;99.90;;;;;;4975741;28;20869;-67
2023/08/12 09:09:17;;;;;;;5.03;4.47;;;21.40;99.90;;;;;;4975769;28;20468;-66
2023/08/12 09:11:45;;;;;;;5.43;4.47;;;21.30;1.00;;;;;;4961106;28;20466;-67
2023/08/12 09:14:13;;;;;;;4.60;3.80;;;21.30;1.00;;;;;;4963246;28;20769;-67
2023/08/12 09:16:40;;;;;;;6.43;4.20;;;21.40;1.00;;;;;;4961212;28;20562;-66
2023/08/12 09:19:08;;;;;;;5.47;4.10;;;21.50;99.90;;;;;;4962106;29;20896;-66
2023/08/12 09:21:35;;;;;;;3.93;3.53;;;21.50;1.00;;;;;;4969209;28;20599;-66
2023/08/12 09:24:06;;;;;;;5.77;4.00;;;21.60;99.90;;;;;;4962265;29;20473;-66
2023/08/12 09:26:33;;;;;;;4.30;3.90;;;21.70;99.90;;;;;;4961793;28;20817;-67
2023/08/12 09:29:02;;;;;;;4.43;3.80;;;21.70;99.90;;;;;;4971322;28;20494;-67
2023/08/12 09:31:32;;;;;;;5.20;4.00;;;21.80;99.90;;;;;;4969312;28;20462;-67
2023/08/12 09:34:00;;;;;;;4.30;3.23;;;22.10;1.00;;;;;;4981164;28;20958;-66
2023/08/12 09:36:30;;;;;;;5.33;3.93;;;22.40;1.00;;;;;;4968326;28;20495;-66
2023/08/12 09:38:58;;;;;;;4.60;4.20;;;22.70;99.90;;;;;;4963111;28;20450;-67
2023/08/12 09:41:28;;;;;;;3.80;3.40;;;22.90;1.00;;;;;;4961766;29;20906;-65
2023/08/12 09:43:57;;;;;;;4.77;3.87;;;23.00;99.90;;;;;;4962066;29;20473;-67
2023/08/12 09:46:25;;;;;;;4.87;3.43;;;23.10;13.70;;;;;;4966710;28;20493;-65
2023/08/12 09:48:52;;;;;;;3.80;3.03;;;23.10;1.00;;;;;;4965856;28;20463;-66
2023/08/12 09:51:21;;;;;;;5.20;3.37;;;23.20;99.90;;;;;;4967945;28;20458;-67
2023/08/12 09:53:50;;;;;;;5.43;3.17;;;23.20;99.90;;;;;;4960891;28;20561;-65
2023/08/12 09:56:20;;;;;;;3.80;3.50;;;23.20;1.00;;;;;;4960295;28;20467;-64
2023/08/12 09:58:51;;;;;;;4.50;3.40;;;23.10;1.00;;;;;;4959622;28;20943;-65
2023/08/12 10:01:21;;;;;;;4.10;3.70;;;23.10;2.40;;;;;;4960132;28;20494;-64
2023/08/12 10:03:51;;;;;;;5.10;3.67;;;23.30;1.00;;;;;;4965824;28;20473;-65
2023/08/12 10:06:19;;;;;;;3.60;3.30;;;23.30;99.90;;;;;;4960732;28;20754;-65
2023/08/12 10:08:48;;;;;;;3.33;2.93;;;23.30;99.90;;;;;;4961959;28;20810;-65
2023/08/12 10:11:15;;;;;;;4.60;3.60;;;23.30;1.00;;;;;;4965235;28;20777;-66
2023/08/12 10:13:43;;;;;;;3.60;3.30;;;23.30;1.00;;;;;;4961390;28;20471;-66
2023/08/12 10:16:12;;;;;;;3.73;3.17;;;23.00;38.60;;;;;;4961342;28;20725;-66
2023/08/12 10:18:40;;;;;;;4.13;3.50;;;23.00;1.00;;;;;;4962521;28;21013;-65
2023/08/12 10:21:11;;;;;;;3.60;2.87;;;23.30;1.00;;;;;;4961239;28;20522;-66
2023/08/12 10:23:38;;;;;;;4.00;3.60;;;23.40;1.00;;;;;;4961509;28;20466;-66
2023/08/12 10:26:07;;;;;;;3.40;3.03;;;23.30;1.00;;;;;;4980344;28;20896;-65
2023/08/12 10:28:36;;;;;;;3.80;3.40;;;23.10;1.00;;;;;;4980318;28;20528;-65
2023/08/12 10:31:05;;;;;;;3.60;3.30;;;23.10;1.00;;;;;;4966305;28;20459;-64
2023/08/12 10:33:38;;;;;;;4.10;3.40;;;23.10;1.00;;;;;;4961105;28;20466;-65
2023/08/12 10:36:06;;;;;;;4.10;3.70;;;23.10;1.00;;;;;;4977548;28;20465;-66
2023/08/12 10:38:35;;;;;;;5.07;3.37;;;23.20;1.00;;;;;;4971840;28;20478;-64
2023/08/12 10:41:19;;;;;;;6.03;3.47;;;23.20;1.00;;;;;;4966377;28;20486;-65
2023/08/12 10:43:56;;;;;;;7.33;3.40;;;23.20;1.00;;;;;;4960534;28;20506;-64
2023/08/12 10:46:29;;;;;;;4.23;3.40;;;23.20;1.00;;;;;;4966557;28;20465;-65
2023/08/12 10:49:04;;;;;;;5.67;3.13;;;23.40;1.00;;;;;;4967848;28;20460;-65
2023/08/12 10:51:48;;;;;;;5.37;3.37;;;24.10;1.00;;;;;;4979263;28;20880;-64
2023/08/12 10:54:17;;;;;;;4.57;3.27;;;24.40;1.00;;;;;;4979039;28;20500;-62
2023/08/12 10:57:11;;;;;;;4.37;3.47;;;24.50;99.90;;;;;;4959732;28;20843;-65
2023/08/12 10:59:55;;;;;;;3.57;3.10;;;24.40;99.90;;;;;;4959622;28;20474;-64
2023/08/12 11:02:30;;;;;;;3.90;3.50;;;24.30;99.90;;;;;;4959921;28;20542;-63
2023/08/12 11:05:03;;;;;;;5.13;4.20;;;24.30;99.90;;;;;;4960720;28;20470;-63
2023/08/12 11:07:36;;;;;;;5.60;4.47;;;23.90;99.90;;;;;;4978977;28;20489;-63
2023/08/12 11:10:11;;;;;;;5.00;3.93;;;23.60;1.00;;;;;;4978565;28;20470;-64
2023/08/12 11:12:39;;;;;;;4.07;3.67;;;23.40;1.00;;;;;;4964553;28;20510;-63
2023/08/12 11:15:08;;;;;;;4.40;3.37;;;23.40;93.00;;;;;;4959074;28;20450;-63
2023/08/12 11:17:36;;;;;;;3.73;3.40;;;23.50;99.90;;;;;;4975104;28;20477;-62
2023/08/12 11:20:07;;;;;;;4.20;3.17;;;23.60;99.90;;;;;;4977531;28;20858;-63
2023/08/12 11:22:38;;;;;;;5.37;3.87;;;23.70;99.90;;;;;;4977490;28;20910;-63
2023/08/12 11:25:08;;;;;;;5.20;3.83;;;23.70;99.90;;;;;;4977581;28;20475;-63
2023/08/12 11:27:44;;;;;;;3.70;3.23;;;23.80;99.90;;;;;;4962164;28;20558;-63
2023/08/12 11:30:15;;;;;;;5.40;3.27;;;23.90;99.90;;;;;;4957161;29;20561;-63
2023/08/12 11:32:44;;;;;;;4.20;3.23;;;23.90;99.90;;;;;;4958417;29;20513;-63
2023/08/12 11:35:15;;;;;;;4.33;3.07;;;24.20;99.90;;;;;;4959262;28;20530;-63
2023/08/12 11:37:43;;;;;;;5.53;2.93;;;24.30;76.20;;;;;;4969571;28;20687;-63
2023/08/12 11:40:14;;;;;;;3.40;2.90;;;24.20;1.00;;;;;;4975881;28;20461;-63
2023/08/12 11:42:43;;;;;;;3.03;2.73;;;23.90;1.00;;;;;;4960584;28;20498;-63
2023/08/12 11:45:11;;;;;;;4.37;3.17;;;23.60;90.90;;;;;;4958203;29;20469;-63
2023/08/12 11:47:41;;;;;;;4.10;3.60;;;23.60;20.70;;;;;;4957821;28;20829;-63
2023/08/12 11:50:10;;;;;;;6.87;4.17;;;23.60;98.30;;;;;;4958520;28;20816;-63
2023/08/12 11:52:39;;;;;;;4.97;4.43;;;23.40;99.90;;;;;;4957187;28;21006;-65
2023/08/12 11:55:07;;;;;;;5.33;3.90;;;23.20;99.90;;;;;;4959586;28;20508;-64
2023/08/12 11:57:35;;;;;;;4.80;4.17;;;22.80;99.90;;;;;;4968794;28;20478;-66
2023/08/12 12:00:08;;;;;;;6.80;3.83;;;22.50;99.90;;;;;;4958234;28;20861;-66
2023/08/12 12:02:38;;;;;;;9.17;4.33;;;22.20;1.00;;;;;;4958900;29;20835;-67
2023/08/12 12:05:09;;;;;;;3.90;3.50;;;22.00;1.00;;;;;;4959011;28;20955;-65
2023/08/12 12:07:37;;;;;;;3.67;3.20;;;21.70;1.00;;;;;;4959978;28;21062;-63
2023/08/12 12:10:08;;;;;;;4.37;3.40;;;21.70;99.90;;;;;;4958414;28;20558;-64
2023/08/12 12:12:36;;;;;;;3.87;3.20;;;21.70;99.90;;;;;;4958532;28;20466;-63
2023/08/12 12:15:05;;;;;;;3.20;2.80;;;21.50;1.00;;;;;;4958919;29;20506;-63
2023/08/12 12:17:32;;;;;;;3.27;2.77;;;21.50;99.90;;;;;;4958974;28;20467;-63
2023/08/12 12:20:01;;;;;;;3.20;2.90;;;21.70;99.90;;;;;;4970373;28;20533;-62
2023/08/12 12:22:30;;;;;;;3.87;2.43;;;21.70;99.90;;;;;;4974263;28;20990;-61
2023/08/12 12:25:00;;;;;;;3.33;2.70;;;21.70;99.90;;;;;;4963233;28;20549;-61
2023/08/12 12:27:29;;;;;;;5.03;3.10;;;21.60;99.90;;;;;;4974937;28;20465;-62
2023/08/12 12:29:56;;;;;;;3.37;2.07;;;21.40;99.90;;;;;;4976196;28;20465;-64
2023/08/12 12:32:24;;;;;;;3.97;2.43;;;21.40;99.90;;;;;;4977241;28;20458;-63
2023/08/12 12:34:52;;;;;;;4.20;2.80;;;21.80;99.90;;;;;;4974725;28;20461;-63
2023/08/12 12:37:19;;;;;;;3.23;2.50;;;22.60;99.90;;;;;;4968294;28;20471;-65
2023/08/12 12:39:47;;;;;;;3.00;2.23;;;23.60;99.90;;;;;;4963328;28;20497;-63
2023/08/12 12:42:14;;;;;;;3.73;2.73;;;24.20;99.90;;;;;;4967191;28;20486;-64
2023/08/12 12:44:43;;;;;;;2.80;2.20;;;24.60;99.90;;;;;;4958446;28;20804;-63
2023/08/12 12:47:12;;;;;;;2.50;2.03;;;25.10;1.00;;;;;;4962473;28;20488;-64